Time;durP1;ratioP1;P1;durP2;ratioP2;P2;SDS_P1;SDS_P2;PMS_P1;PMS_P2;Temp;Humidity;BMP_temperature;BMP_pressure;BME280_temperature;BME280_humidity;BME280_pressure;Samples;Min_cycle;Max_cycle;Signal;HPM_P1;HPM_P2
2023/03/24 00:01:42;;;;;;;2.10;1.90;;;17.40;64.00;18.70;99376.00;;;;5008495;28;20830;-46
2023/03/24 00:04:08;;;;;;;2.27;2.07;;;17.50;64.10;18.70;99372.00;;;;5008834;28;20248;-46
2023/03/24 00:06:35;;;;;;;1.80;1.70;;;17.40;64.10;18.70;99372.00;;;;5012551;28;20721;-46
2023/03/24 00:09:02;;;;;;;1.80;1.70;;;17.40;64.10;18.70;99371.00;;;;5012430;28;20206;-47
2023/03/24 00:11:28;;;;;;;2.13;1.90;;;17.50;64.30;18.70;99353.00;;;;5011105;28;20202;-46
2023/03/24 00:13:57;;;;;;;1.90;1.80;;;17.40;64.10;18.60;99358.00;;;;5012026;28;20183;-46
2023/03/24 00:16:23;;;;;;;1.87;1.70;;;17.40;64.10;18.70;99359.00;;;;5012133;28;20183;-46
2023/03/24 00:18:51;;;;;;;2.23;2.00;;;17.40;64.20;18.70;99362.00;;;;5011937;28;20183;-46
2023/03/24 00:21:20;;;;;;;2.00;1.80;;;17.40;64.30;18.60;99354.00;;;;5011907;28;20772;-46
2023/03/24 00:23:48;;;;;;;2.10;1.90;;;17.40;64.30;18.60;99349.00;;;;4992986;28;20187;-46
2023/03/24 00:26:14;;;;;;;2.10;1.90;;;17.40;64.30;18.60;99342.00;;;;5012003;28;20172;-46
2023/03/24 00:28:42;;;;;;;2.07;1.87;;;17.40;64.30;18.60;99339.00;;;;5011764;28;20179;-47
2023/03/24 00:31:09;;;;;;;1.90;1.80;;;17.40;64.30;18.60;99332.00;;;;5011662;28;20296;-46
2023/03/24 00:33:35;;;;;;;2.33;1.83;;;17.40;64.30;18.60;99327.00;;;;5011355;28;20214;-46
2023/03/24 00:36:04;;;;;;;3.40;1.90;;;17.40;64.30;18.60;99268.00;;;;5011357;28;20185;-45
2023/03/24 00:38:30;;;;;;;2.13;1.90;;;17.40;65.00;18.60;99306.00;;;;5011881;28;20261;-45
2023/03/24 00:40:57;;;;;;;1.83;1.63;;;17.40;64.30;18.60;99300.00;;;;5011476;28;20716;-47
2023/03/24 00:43:23;;;;;;;2.20;1.63;;;17.40;64.30;18.60;99295.00;;;;5011450;28;20175;-46
2023/03/24 00:45:51;;;;;;;2.13;1.93;;;17.40;64.30;18.60;99293.00;;;;5011081;28;20559;-46
2023/03/24 00:48:17;;;;;;;2.70;2.00;;;17.40;65.10;18.60;99297.00;;;;5011386;28;20186;-46
2023/03/24 00:50:45;;;;;;;2.40;1.90;;;17.40;64.30;18.60;99294.00;;;;5011008;28;20620;-46
2023/03/24 00:53:14;;;;;;;2.40;1.80;;;17.40;64.30;18.60;99310.00;;;;5010080;28;20205;-46
2023/03/24 00:55:41;;;;;;;2.00;1.80;;;17.30;64.20;18.60;99298.00;;;;5011051;28;20263;-46
2023/03/24 00:58:07;;;;;;;2.10;1.90;;;17.40;65.10;18.60;99300.00;;;;5011493;28;20222;-45
2023/03/24 01:00:34;;;;;;;2.23;1.90;;;17.30;64.30;18.60;99226.00;;;;5011271;28;20238;-45
2023/03/24 01:03:02;;;;;;;1.70;1.60;;;17.30;64.30;18.60;99286.00;;;;5011002;28;20725;-46
2023/03/24 01:05:29;;;;;;;2.07;1.87;;;17.30;64.30;18.60;99278.00;;;;5011160;28;20552;-46
2023/03/24 01:08:01;;;;;;;1.53;1.43;;;17.30;64.30;18.50;99276.00;;;;5011091;28;20179;-46
2023/03/24 01:10:28;;;;;;;1.80;1.70;;;17.40;64.40;18.50;99269.00;;;;5011380;28;20709;-46
2023/03/24 01:12:55;;;;;;;2.00;1.80;;;17.40;64.40;18.50;99271.00;;;;5015557;28;20187;-46
2023/03/24 01:15:23;;;;;;;1.90;1.80;;;17.30;64.40;18.50;99263.00;;;;5017543;28;20267;-46
2023/03/24 01:17:52;;;;;;;1.70;1.60;;;17.30;64.30;18.50;99264.00;;;;5016053;28;20196;-45
2023/03/24 01:20:17;;;;;;;1.77;1.67;;;17.30;64.30;18.50;99264.00;;;;5011677;28;20796;-46
2023/03/24 01:22:44;;;;;;;1.60;1.50;;;17.30;65.10;18.50;99265.00;;;;5011295;28;20241;-45
2023/03/24 01:25:14;;;;;;;1.83;1.73;;;17.30;64.40;18.50;99273.00;;;;5011098;28;20187;-46
2023/03/24 01:27:39;;;;;;;2.07;1.87;;;17.30;64.40;18.50;99271.00;;;;5010007;28;20268;-46
2023/03/24 01:30:06;;;;;;;2.10;1.90;;;17.30;64.50;18.50;99270.00;;;;5009311;28;20266;-45
2023/03/24 01:32:32;;;;;;;2.00;1.80;;;17.30;64.50;18.50;99265.00;;;;5010568;28;20188;-46
2023/03/24 01:34:58;;;;;;;1.90;1.80;;;17.20;64.30;18.50;99258.00;;;;5010749;28;20202;-45
2023/03/24 01:37:24;;;;;;;1.83;1.70;;;17.20;64.40;18.50;99257.00;;;;5010612;28;20186;-46
2023/03/24 01:39:50;;;;;;;1.97;1.87;;;17.30;64.50;18.50;99248.00;;;;5010796;28;20240;-47
2023/03/24 01:42:22;;;;;;;1.90;1.80;;;17.20;64.50;18.50;99246.00;;;;5010579;28;20234;-46
2023/03/24 01:44:49;;;;;;;1.80;1.70;;;17.20;64.50;18.50;99241.00;;;;5010570;28;20188;-47
2023/03/24 01:47:16;;;;;;;2.20;2.00;;;17.20;64.50;18.40;99227.00;;;;5010330;28;20179;-46
2023/03/24 01:49:51;;;;;;;2.73;2.00;;;17.20;64.50;18.50;99232.00;;;;5010262;28;20272;-46
2023/03/24 01:52:24;;;;;;;1.90;1.80;;;17.20;64.50;18.40;99236.00;;;;5009185;28;20198;-46
2023/03/24 01:54:57;;;;;;;1.77;1.67;;;17.20;64.50;18.40;99230.00;;;;5009002;28;20185;-45
2023/03/24 01:57:30;;;;;;;2.00;1.80;;;17.20;64.50;18.40;99218.00;;;;5009097;28;20207;-45
2023/03/24 02:00:04;;;;;;;2.00;1.90;;;17.20;64.50;18.40;99212.00;;;;5008364;28;20722;-47
2023/03/24 02:02:33;;;;;;;2.00;1.90;;;17.30;64.70;18.40;99198.00;;;;5008720;28;20190;-45
2023/03/24 02:05:03;;;;;;;1.77;1.67;;;17.20;64.60;18.40;99183.00;;;;5008967;28;20187;-46
2023/03/24 02:07:40;;;;;;;2.00;1.90;;;17.20;65.40;18.40;99195.00;;;;5008887;28;20194;-46
2023/03/24 02:10:12;;;;;;;1.90;1.80;;;17.20;64.60;18.40;99183.00;;;;5008674;28;20274;-46
2023/03/24 02:12:38;;;;;;;1.93;1.80;;;17.20;64.60;18.40;99167.00;;;;5009679;28;20175;-47
2023/03/24 02:15:05;;;;;;;1.90;1.80;;;17.20;64.70;18.40;99163.00;;;;5010055;28;20183;-46
2023/03/24 02:17:55;;;;;;;2.10;1.90;;;17.20;64.70;18.40;99162.00;;;;4992558;28;20256;-46
2023/03/24 02:21:00;;;;;;;2.00;1.77;;;17.20;64.70;18.40;99160.00;;;;5008834;28;20294;-46
2023/03/24 02:23:46;;;;;;;2.00;1.80;;;17.20;64.80;18.30;99151.00;;;;5008693;28;20190;-46
2023/03/24 02:26:29;;;;;;;2.10;1.93;;;17.20;64.80;18.30;99133.00;;;;5008448;28;20170;-46
2023/03/24 02:29:20;;;;;;;1.80;1.70;;;17.20;64.90;18.30;99139.00;;;;5008035;28;20197;-45
2023/03/24 02:32:12;;;;;;;2.20;2.00;;;17.20;65.60;18.20;99133.00;;;;5008344;28;20185;-47
2023/03/24 02:35:28;;;;;;;2.20;2.00;;;17.10;64.90;18.30;99135.00;;;;5009514;28;20663;-45
2023/03/24 02:38:42;;;;;;;2.13;1.90;;;17.10;64.90;18.30;99116.00;;;;5008255;28;20631;-46
2023/03/24 02:41:26;;;;;;;1.90;1.80;;;17.10;65.00;18.30;99126.00;;;;5008278;28;20201;-46
2023/03/24 02:44:04;;;;;;;2.00;1.90;;;17.10;65.10;18.20;99117.00;;;;5009168;28;20261;-46
2023/03/24 02:46:42;;;;;;;2.13;2.00;;;17.10;65.00;18.30;99127.00;;;;5008558;28;20172;-46
2023/03/24 02:49:15;;;;;;;2.30;1.80;;;17.10;65.00;18.20;99129.00;;;;5008362;28;20643;-46
2023/03/24 02:52:01;;;;;;;2.20;2.00;;;17.10;65.10;18.30;99124.00;;;;5009191;28;20192;-46
2023/03/24 02:54:51;;;;;;;2.17;2.00;;;17.10;65.20;18.30;99115.00;;;;5008365;28;20260;-47
2023/03/24 02:57:31;;;;;;;2.27;2.07;;;17.10;65.20;18.20;99133.00;;;;5008114;28;20665;-46
2023/03/24 03:00:12;;;;;;;2.20;2.00;;;17.10;65.20;18.20;99134.00;;;;5009217;28;20204;-46
2023/03/24 03:02:50;;;;;;;2.20;2.00;;;17.00;65.20;18.20;99129.00;;;;5007815;28;20241;-45
2023/03/24 03:05:34;;;;;;;2.40;2.20;;;17.00;65.20;18.20;99114.00;;;;5008985;28;20260;-46
2023/03/24 03:08:01;;;;;;;2.90;2.03;;;17.00;65.20;18.20;99131.00;;;;5008470;28;20184;-46
2023/03/24 03:10:34;;;;;;;1.90;1.80;;;17.10;65.40;18.20;99119.00;;;;5009362;28;20208;-45
2023/03/24 03:13:01;;;;;;;2.90;2.30;;;17.10;65.40;18.20;99120.00;;;;5007684;28;20381;-47
2023/03/24 03:15:35;;;;;;;2.20;2.00;;;17.00;65.20;18.20;99125.00;;;;5007934;28;20770;-46
2023/03/24 03:18:31;;;;;;;2.13;2.03;;;17.00;65.30;18.20;99129.00;;;;5008064;28;20597;-46
2023/03/24 03:21:05;;;;;;;2.30;2.10;;;17.00;65.20;18.20;99118.00;;;;5007678;28;20208;-46
2023/03/24 03:23:37;;;;;;;2.30;2.10;;;17.00;65.40;18.20;99121.00;;;;5007306;28;20277;-45
2023/03/24 03:26:04;;;;;;;2.57;2.20;;;17.00;65.50;18.20;99124.00;;;;5007638;28;20172;-46
2023/03/24 03:28:32;;;;;;;2.50;2.10;;;17.00;65.50;18.20;99118.00;;;;5007868;28;20200;-45
2023/03/24 03:31:05;;;;;;;2.40;2.20;;;17.00;65.50;18.20;99113.00;;;;5007610;28;20214;-45
2023/03/24 03:33:57;;;;;;;2.63;2.43;;;17.00;65.60;18.20;99119.00;;;;5007637;28;20187;-45
2023/03/24 03:36:38;;;;;;;2.63;2.23;;;17.00;65.60;18.20;99120.00;;;;5008130;28;20185;-45
2023/03/24 03:39:15;;;;;;;2.50;2.30;;;17.00;65.60;18.20;99111.00;;;;5012058;28;20214;-45
2023/03/24 03:41:40;;;;;;;2.50;2.30;;;17.00;65.60;18.10;99122.00;;;;5013628;28;20617;-45
2023/03/24 03:44:06;;;;;;;2.47;2.27;;;17.00;66.40;18.20;99122.00;;;;5012892;28;20225;-46
2023/03/24 03:46:32;;;;;;;2.50;2.30;;;17.00;65.50;18.20;99116.00;;;;5012233;28;20185;-46
2023/03/24 03:48:58;;;;;;;2.40;2.20;;;17.00;65.60;18.20;99115.00;;;;5011654;28;20172;-46
2023/03/24 03:51:24;;;;;;;2.50;2.30;;;17.00;65.60;18.20;99115.00;;;;5011784;28;20616;-46
2023/03/24 03:53:58;;;;;;;2.47;2.23;;;17.00;65.70;18.20;99112.00;;;;5012469;28;20219;-45
2023/03/24 03:56:30;;;;;;;2.47;2.10;;;17.00;65.70;18.20;99105.00;;;;5011304;28;20190;-46
2023/03/24 03:58:57;;;;;;;2.70;2.50;;;17.00;65.80;18.20;99113.00;;;;5012363;28;20180;-46
2023/03/24 04:01:26;;;;;;;2.67;2.40;;;17.00;65.80;18.20;99103.00;;;;5011398;28;20589;-46
2023/03/24 04:04:25;;;;;;;2.50;2.30;;;17.00;65.80;18.20;99116.00;;;;5010971;28;20185;-46
2023/03/24 04:07:12;;;;;;;2.00;1.90;;;17.00;65.90;18.20;99122.00;;;;5011131;28;20173;-45
2023/03/24 04:09:59;;;;;;;2.50;2.30;;;17.00;65.90;18.20;99117.00;;;;5011460;28;20201;-46
2023/03/24 04:13:06;;;;;;;2.63;2.43;;;17.00;66.00;18.20;99124.00;;;;5012855;28;20186;-45
2023/03/24 04:15:45;;;;;;;3.00;2.40;;;16.90;66.00;18.10;99134.00;;;;5011464;28;20684;-46
2023/03/24 04:18:59;;;;;;;2.77;2.57;;;17.00;66.10;18.10;99118.00;;;;5010890;28;20670;-45
2023/03/24 04:21:47;;;;;;;2.57;2.37;;;16.90;66.10;18.10;99128.00;;;;5010505;28;20230;-45
2023/03/24 04:25:16;;;;;;;2.47;2.27;;;17.00;66.20;18.10;99131.00;;;;5011949;28;20194;-46
2023/03/24 04:28:17;;;;;;;3.50;2.47;;;16.90;66.10;18.10;99137.00;;;;4994581;28;20225;-46
2023/03/24 04:31:07;;;;;;;2.67;2.47;;;16.90;66.10;18.10;99144.00;;;;5010972;28;20626;-46
2023/03/24 04:33:41;;;;;;;2.70;2.50;;;17.00;66.90;18.10;99135.00;;;;5010837;28;20335;-46
2023/03/24 04:36:15;;;;;;;3.40;2.43;;;16.90;66.50;18.10;99136.00;;;;5010556;28;20202;-45
2023/03/24 04:38:41;;;;;;;2.50;2.30;;;16.90;66.20;18.10;99145.00;;;;5010561;28;20736;-46
2023/03/24 04:41:07;;;;;;;2.50;2.30;;;17.00;66.20;18.10;99154.00;;;;5010693;28;20312;-45
2023/03/24 04:43:35;;;;;;;2.50;2.30;;;16.90;66.20;18.10;99163.00;;;;5010565;28;20260;-45
2023/03/24 04:46:02;;;;;;;2.70;2.50;;;16.90;66.20;18.10;99163.00;;;;5010568;28;20598;-45
2023/03/24 04:48:28;;;;;;;2.50;2.30;;;16.90;66.50;18.10;99204.00;;;;5011045;28;20176;-47
2023/03/24 04:50:55;;;;;;;2.90;2.50;;;16.80;66.60;18.10;99187.00;;;;5010585;28;20686;-46
2023/03/24 04:53:21;;;;;;;2.57;2.30;;;16.80;66.90;18.00;99230.00;;;;5011140;28;20185;-46
2023/03/24 04:55:49;;;;;;;2.50;2.30;;;16.80;67.20;18.00;99207.00;;;;5012078;28;20259;-46
2023/03/24 04:58:16;;;;;;;3.27;2.20;;;16.70;67.30;18.00;99202.00;;;;5012252;28;20792;-46
2023/03/24 05:00:42;;;;;;;3.33;2.53;;;16.70;68.20;18.00;99212.00;;;;5012256;28;20295;-46
2023/03/24 05:03:15;;;;;;;2.73;2.10;;;16.80;68.30;17.90;99216.00;;;;5012345;28;20183;-46
2023/03/24 05:05:45;;;;;;;3.30;2.33;;;16.70;68.50;17.90;99229.00;;;;5012479;28;20180;-46
2023/03/24 05:08:11;;;;;;;2.77;2.50;;;16.70;69.00;17.90;99243.00;;;;5012749;28;20807;-46
2023/03/24 05:10:37;;;;;;;2.60;2.40;;;16.60;69.40;17.90;99237.00;;;;5012773;28;20204;-46
2023/03/24 05:13:03;;;;;;;2.60;2.40;;;16.60;69.60;17.80;99242.00;;;;5012164;28;20172;-46
2023/03/24 05:15:29;;;;;;;2.90;2.60;;;16.60;69.70;17.80;99251.00;;;;5012497;28;20187;-46
2023/03/24 05:17:55;;;;;;;3.17;2.80;;;16.60;69.90;17.80;99241.00;;;;5012526;28;20183;-46
2023/03/24 05:20:21;;;;;;;2.60;2.40;;;16.60;69.90;17.80;99246.00;;;;5013989;28;20191;-45
2023/03/24 05:22:48;;;;;;;4.13;2.60;;;16.50;69.90;17.80;99249.00;;;;5018637;28;20180;-46
2023/03/24 05:25:14;;;;;;;4.17;2.67;;;16.60;69.80;17.70;99263.00;;;;5018985;28;20216;-45
2023/03/24 05:27:40;;;;;;;3.07;2.77;;;16.50;69.50;17.70;99269.00;;;;5016126;28;20678;-46
2023/03/24 05:30:07;;;;;;;2.93;2.63;;;16.50;69.50;17.70;99266.00;;;;5005868;28;20284;-46
2023/03/24 05:32:33;;;;;;;3.10;2.67;;;16.50;69.20;17.70;99279.00;;;;5010102;28;20180;-47
2023/03/24 05:34:59;;;;;;;2.73;2.50;;;16.50;69.20;17.70;99289.00;;;;5011354;28;20175;-46
2023/03/24 05:37:26;;;;;;;3.83;2.37;;;16.50;68.80;17.60;99322.00;;;;5011173;28;20184;-46
2023/03/24 05:39:52;;;;;;;2.40;2.20;;;16.50;68.40;17.70;99325.00;;;;5010794;28;20558;-46
2023/03/24 05:42:18;;;;;;;3.33;2.23;;;16.50;68.30;17.70;99318.00;;;;5010657;28;20201;-45
2023/03/24 05:44:44;;;;;;;3.33;2.30;;;16.40;68.20;17.70;99324.00;;;;5010731;28;20738;-46
2023/03/24 05:47:11;;;;;;;3.40;2.17;;;16.40;68.30;17.70;99327.00;;;;5009939;28;20667;-46
2023/03/24 05:49:37;;;;;;;2.27;2.07;;;16.40;68.20;17.70;99332.00;;;;5010532;28;20192;-46
2023/03/24 05:52:04;;;;;;;4.17;2.20;;;16.40;67.90;17.70;99325.00;;;;5010437;28;20181;-46
2023/03/24 05:54:32;;;;;;;2.40;2.20;;;16.40;67.70;17.70;99330.00;;;;5009825;28;20565;-46
2023/03/24 05:56:59;;;;;;;2.30;2.10;;;16.40;67.60;17.70;99327.00;;;;5011010;28;20172;-47
2023/03/24 05:59:25;;;;;;;2.13;1.93;;;16.40;67.50;17.70;99346.00;;;;5010303;28;20259;-47
2023/03/24 06:01:52;;;;;;;2.87;2.10;;;16.40;67.40;17.70;99340.00;;;;5010004;28;20205;-46
2023/03/24 06:04:19;;;;;;;2.63;2.00;;;16.40;67.10;17.70;99348.00;;;;5011698;28;20229;-46
2023/03/24 06:06:45;;;;;;;2.10;1.90;;;16.40;67.00;17.70;99329.00;;;;5011215;28;20172;-47
2023/03/24 06:09:13;;;;;;;2.10;1.90;;;16.40;66.90;17.70;99351.00;;;;5009725;28;20172;-45
2023/03/24 06:11:39;;;;;;;2.20;1.80;;;16.50;66.80;17.70;99355.00;;;;5009426;28;20662;-44
2023/03/24 06:14:06;;;;;;;2.33;1.90;;;16.40;66.50;17.70;99359.00;;;;5010767;28;20171;-46
2023/03/24 06:16:32;;;;;;;2.60;1.90;;;16.50;66.40;17.70;99373.00;;;;5010858;28;20175;-46
2023/03/24 06:18:59;;;;;;;2.10;1.90;;;16.50;66.40;17.70;99393.00;;;;5010376;28;20175;-46
2023/03/24 06:21:29;;;;;;;2.80;1.93;;;16.50;66.30;17.70;99397.00;;;;5010355;28;20200;-46
2023/03/24 06:23:57;;;;;;;2.27;1.83;;;16.50;66.20;17.70;99393.00;;;;5008525;28;20276;-46
2023/03/24 06:26:23;;;;;;;2.13;1.80;;;16.50;66.00;17.70;99391.00;;;;5009741;28;20172;-46
2023/03/24 06:28:50;;;;;;;1.93;1.73;;;16.50;65.70;17.70;99394.00;;;;5008372;28;20182;-45
2023/03/24 06:31:20;;;;;;;2.00;1.77;;;16.50;65.60;17.70;99395.00;;;;5009589;28;20230;-46
2023/03/24 06:33:51;;;;;;;2.50;1.80;;;16.50;65.70;17.70;99396.00;;;;5008919;28;20181;-45
2023/03/24 06:36:17;;;;;;;2.57;1.90;;;16.50;65.70;17.70;99394.00;;;;5008832;28;20194;-46
2023/03/24 06:38:43;;;;;;;2.40;1.97;;;16.50;65.50;17.70;99399.00;;;;5011287;28;20176;-45
2023/03/24 06:41:09;;;;;;;2.07;1.70;;;16.50;65.50;17.70;99399.00;;;;5012805;28;20695;-46
2023/03/24 06:43:35;;;;;;;1.83;1.70;;;16.50;65.20;17.70;99421.00;;;;5011781;28;20708;-45
2023/03/24 06:46:00;;;;;;;3.03;2.00;;;16.50;65.20;17.70;99419.00;;;;5011845;28;20180;-46
2023/03/24 06:48:26;;;;;;;2.13;1.80;;;16.50;65.00;17.70;99414.00;;;;5009822;28;20260;-45
2023/03/24 06:50:52;;;;;;;3.07;1.80;;;16.50;65.00;17.70;99420.00;;;;5009528;28;20203;-46
2023/03/24 06:53:20;;;;;;;2.70;1.70;;;16.40;64.70;17.70;99430.00;;;;5009201;28;20184;-45
2023/03/24 06:55:49;;;;;;;2.90;1.63;;;16.50;64.80;17.70;99457.00;;;;5009532;28;20200;-45
2023/03/24 06:58:16;;;;;;;2.00;1.73;;;16.40;64.60;17.70;99457.00;;;;5009341;28;20186;-45
2023/03/24 07:00:43;;;;;;;2.63;1.77;;;16.50;64.60;17.40;99456.00;;;;5007797;28;20205;-45
2023/03/24 07:03:09;;;;;;;3.10;1.77;;;16.50;64.60;17.70;99465.00;;;;5008874;28;20199;-46
2023/03/24 07:05:42;;;;;;;4.23;2.00;;;16.50;64.60;17.70;99462.00;;;;5010284;28;20202;-45
2023/03/24 07:08:08;;;;;;;2.57;1.70;;;16.40;64.50;17.70;99462.00;;;;5010421;28;20188;-45
2023/03/24 07:10:38;;;;;;;3.97;2.07;;;16.40;64.50;17.70;99477.00;;;;5009321;28;20259;-45
2023/03/24 07:13:05;;;;;;;2.87;1.90;;;16.40;64.50;17.70;99466.00;;;;5008960;28;20651;-45
2023/03/24 07:15:30;;;;;;;2.50;1.90;;;16.40;64.40;17.70;99464.00;;;;5009897;28;20271;-46
2023/03/24 07:17:56;;;;;;;2.27;1.90;;;16.50;64.50;17.70;99467.00;;;;5010041;28;20593;-45
2023/03/24 07:20:22;;;;;;;4.47;2.10;;;16.40;64.20;17.60;99456.00;;;;5008599;28;20199;-47
2023/03/24 07:22:48;;;;;;;3.07;1.90;;;16.40;64.10;17.60;99463.00;;;;5008340;28;20186;-45
2023/03/24 07:25:18;;;;;;;2.83;1.80;;;16.40;64.10;17.60;99471.00;;;;5009677;28;20203;-45
2023/03/24 07:27:45;;;;;;;3.37;2.20;;;16.40;64.00;17.60;99478.00;;;;5009792;28;20176;-47
2023/03/24 07:30:11;;;;;;;3.00;1.83;;;16.40;63.90;17.60;99487.00;;;;5007714;28;20679;-46
2023/03/24 07:32:38;;;;;;;2.67;2.10;;;16.40;64.00;17.60;99498.00;;;;5009471;28;20531;-46
2023/03/24 07:35:09;;;;;;;2.07;1.80;;;16.30;63.70;17.60;99494.00;;;;5004554;28;20182;-45
2023/03/24 07:37:35;;;;;;;4.00;2.00;;;16.40;63.90;17.60;99483.00;;;;5002275;28;20554;-46
2023/03/24 07:40:10;;;;;;;3.83;1.90;;;16.40;63.90;17.60;99482.00;;;;5006086;28;20693;-46
2023/03/24 07:42:38;;;;;;;3.00;2.10;;;16.40;63.80;17.60;99508.00;;;;5008913;28;20287;-47
2023/03/24 07:45:07;;;;;;;3.97;2.43;;;16.30;63.50;17.60;99493.00;;;;5009603;28;20172;-45
2023/03/24 07:47:33;;;;;;;5.70;2.13;;;16.30;63.20;17.60;99493.00;;;;5008626;28;20546;-45
2023/03/24 07:49:59;;;;;;;3.73;2.30;;;16.30;63.40;17.60;99489.00;;;;5007372;28;20200;-45
2023/03/24 07:52:25;;;;;;;2.50;2.10;;;16.30;63.50;17.60;99501.00;;;;5007997;28;20180;-45
2023/03/24 07:54:50;;;;;;;3.63;2.00;;;16.40;63.80;17.60;99499.00;;;;5009479;28;20241;-46
2023/03/24 07:57:16;;;;;;;3.50;2.10;;;16.40;64.00;17.60;99478.00;;;;5008044;28;20187;-45
2023/03/24 07:59:42;;;;;;;4.60;2.10;;;16.40;64.20;17.60;99495.00;;;;5008534;28;20343;-46
2023/03/24 08:02:26;;;;;;;3.33;2.10;;;16.40;64.30;17.60;99504.00;;;;5001575;28;20216;-45
2023/03/24 08:04:55;;;;;;;5.40;2.27;;;16.40;64.50;17.60;99506.00;;;;5003984;28;20225;-45
2023/03/24 08:07:21;;;;;;;3.93;2.27;;;16.40;64.70;17.60;99508.00;;;;5004079;28;20190;-46
2023/03/24 08:09:46;;;;;;;2.87;2.00;;;16.50;64.80;17.60;99511.00;;;;5001609;28;20500;-45
2023/03/24 08:12:12;;;;;;;6.10;2.37;;;16.50;64.80;17.60;99509.00;;;;5000221;28;20181;-46
2023/03/24 08:14:38;;;;;;;4.60;2.30;;;16.60;64.90;17.70;99515.00;;;;5006806;28;20181;-46
2023/03/24 08:17:04;;;;;;;4.03;2.30;;;16.60;64.90;17.70;99524.00;;;;5008832;28;20188;-46
2023/03/24 08:19:29;;;;;;;2.57;2.13;;;16.70;64.90;17.70;99520.00;;;;5008385;28;20189;-46
2023/03/24 08:21:55;;;;;;;4.40;2.20;;;16.70;64.80;17.70;99511.00;;;;5009139;28;20208;-47
2023/03/24 08:24:21;;;;;;;5.47;2.30;;;16.70;64.80;17.70;99502.00;;;;5009163;28;20839;-46
2023/03/24 08:26:47;;;;;;;3.00;1.83;;;16.80;65.10;17.80;99510.00;;;;5010709;28;20195;-47
2023/03/24 08:29:12;;;;;;;5.90;2.10;;;16.80;65.20;17.80;99508.00;;;;5012591;28;20183;-46
2023/03/24 08:31:38;;;;;;;4.57;2.00;;;16.80;65.40;17.80;99518.00;;;;5012202;28;20208;-46
2023/03/24 08:34:05;;;;;;;5.63;2.13;;;16.80;65.40;17.80;99514.00;;;;5011360;28;20601;-46
2023/03/24 08:36:31;;;;;;;5.90;2.23;;;16.80;65.60;17.80;99505.00;;;;5012838;28;20193;-46
2023/03/24 08:38:57;;;;;;;4.40;2.00;;;16.80;65.80;17.80;99496.00;;;;5011251;28;20188;-46
2023/03/24 08:41:35;;;;;;;3.10;1.90;;;16.80;66.00;17.90;99516.00;;;;5012354;28;20204;-46
2023/03/24 08:44:06;;;;;;;4.33;2.00;;;16.80;66.00;17.90;99516.00;;;;5012097;28;20212;-46
2023/03/24 08:46:32;;;;;;;4.07;1.87;;;16.80;65.90;17.90;99514.00;;;;5013843;28;20188;-46
2023/03/24 08:48:58;;;;;;;3.90;1.80;;;16.90;66.00;17.90;99515.00;;;;5013217;28;20181;-46
2023/03/24 08:51:24;;;;;;;4.23;2.13;;;16.90;66.10;17.90;99511.00;;;;5013162;28;20733;-46
2023/03/24 08:53:51;;;;;;;3.53;1.87;;;16.80;66.00;17.90;99504.00;;;;5012185;28;20312;-46
2023/03/24 08:56:18;;;;;;;3.60;2.10;;;16.80;66.00;17.90;99502.00;;;;5012095;28;20215;-47
2023/03/24 08:58:47;;;;;;;3.77;2.00;;;16.80;66.00;17.90;99517.00;;;;5011636;28;20189;-47
2023/03/24 09:01:13;;;;;;;3.07;2.00;;;16.80;66.00;17.90;99508.00;;;;5011884;28;20238;-45
2023/03/24 09:03:40;;;;;;;2.00;1.80;;;16.80;66.00;17.90;99520.00;;;;5010592;28;20179;-48
2023/03/24 09:06:06;;;;;;;2.27;1.80;;;16.80;66.80;17.90;99511.00;;;;5012494;28;20168;-45
2023/03/24 09:08:32;;;;;;;2.63;1.97;;;16.80;66.00;17.90;99515.00;;;;5012073;28;20740;-46
2023/03/24 09:10:57;;;;;;;2.57;1.77;;;16.80;66.00;17.90;99518.00;;;;5011353;28;20258;-46
2023/03/24 09:13:23;;;;;;;2.70;1.93;;;16.90;66.10;17.90;99520.00;;;;5012243;28;20181;-45
2023/03/24 09:15:56;;;;;;;1.97;1.77;;;16.90;66.10;18.00;99528.00;;;;5009863;28;20188;-46
2023/03/24 09:18:22;;;;;;;8.90;2.20;;;16.80;66.00;17.90;99535.00;;;;5011594;28;20235;-46
2023/03/24 09:20:48;;;;;;;6.77;2.20;;;16.90;66.10;17.90;99527.00;;;;5010902;28;20336;-45
2023/03/24 09:23:13;;;;;;;7.43;2.10;;;16.90;66.10;17.90;99533.00;;;;5011356;28;20171;-46
2023/03/24 09:25:39;;;;;;;3.10;1.83;;;16.90;66.10;18.00;99533.00;;;;5011265;28;20174;-46
2023/03/24 09:28:06;;;;;;;4.23;2.10;;;16.90;66.10;18.00;99530.00;;;;5010547;28;20596;-46
2023/03/24 09:30:32;;;;;;;10.10;2.10;;;17.00;66.20;18.00;99538.00;;;;5011185;28;20311;-46
2023/03/24 09:32:58;;;;;;;7.17;2.10;;;17.00;66.20;18.00;99548.00;;;;5011679;28;20313;-46
2023/03/24 09:35:26;;;;;;;4.20;2.10;;;17.00;66.20;18.00;99542.00;;;;5013199;28;20770;-46
2023/03/24 09:37:52;;;;;;;4.13;2.03;;;17.00;66.20;18.00;99538.00;;;;5012931;28;20176;-46
2023/03/24 09:40:36;;;;;;;3.87;1.60;;;17.00;66.20;18.00;99528.00;;;;5011214;28;20226;-47
2023/03/24 09:43:13;;;;;;;10.63;2.10;;;17.00;66.20;18.00;99524.00;;;;5011075;28;20178;-46
2023/03/24 09:45:51;;;;;;;3.97;2.20;;;17.00;66.60;18.00;99537.00;;;;5011104;28;20195;-47
2023/03/24 09:48:46;;;;;;;5.27;2.10;;;17.00;66.80;18.00;99538.00;;;;5008351;28;20179;-47
2023/03/24 09:51:24;;;;;;;2.30;1.70;;;17.00;67.80;18.00;99549.00;;;;5008905;28;20200;-47
2023/03/24 09:54:13;;;;;;;4.67;1.90;;;17.00;66.90;18.00;99539.00;;;;5008662;28;20712;-47
2023/03/24 09:56:41;;;;;;;3.33;1.90;;;17.00;66.80;18.00;99554.00;;;;5009059;28;20179;-46
2023/03/24 09:59:27;;;;;;;2.20;1.80;;;17.10;66.70;18.10;99551.00;;;;5007816;28;20540;-46
2023/03/24 10:01:52;;;;;;;3.93;2.07;;;17.10;66.60;18.10;99555.00;;;;5008376;28;20208;-46
2023/03/24 10:04:20;;;;;;;3.10;2.17;;;17.10;66.60;18.10;99543.00;;;;5009879;28;20179;-46
2023/03/24 10:06:51;;;;;;;2.93;1.67;;;17.10;66.70;18.10;99556.00;;;;5008301;28;20269;-46
2023/03/24 10:09:29;;;;;;;6.00;2.10;;;17.10;66.80;18.10;99555.00;;;;5002611;28;20759;-46
2023/03/24 10:12:09;;;;;;;5.10;2.00;;;17.10;67.00;18.10;99544.00;;;;5002594;28;20179;-45
2023/03/24 10:14:44;;;;;;;2.97;1.90;;;17.20;67.10;18.10;99563.00;;;;4999925;28;20181;-47
2023/03/24 10:17:59;;;;;;;2.37;1.80;;;17.20;67.40;18.10;99570.00;;;;5005261;28;20264;-46
2023/03/24 10:20:48;;;;;;;4.37;1.90;;;17.20;67.20;18.10;99573.00;;;;5004780;28;20263;-46
2023/03/24 10:23:35;;;;;;;2.60;1.80;;;17.20;67.20;18.10;99582.00;;;;5001321;28;20519;-47
2023/03/24 10:26:31;;;;;;;3.70;2.00;;;17.20;67.00;18.10;99589.00;;;;5006725;28;20178;-47
2023/03/24 10:29:18;;;;;;;3.20;2.00;;;17.10;66.40;18.10;99582.00;;;;5019606;28;20179;-53
2023/03/24 10:32:19;;;;;;;2.93;2.00;;;17.10;66.30;18.10;99589.00;;;;5026878;28;20237;-46
2023/03/24 10:34:47;;;;;;;2.07;1.73;;;17.10;66.30;18.10;99587.00;;;;5010734;28;20185;-47
2023/03/24 10:37:13;;;;;;;3.50;2.00;;;17.10;66.70;18.10;99593.00;;;;5008971;28;20280;-46
2023/03/24 10:39:39;;;;;;;2.80;1.90;;;17.10;66.30;18.10;99589.00;;;;5009332;28;20831;-46
2023/03/24 10:42:05;;;;;;;3.83;1.93;;;17.10;66.30;18.10;99577.00;;;;5009693;28;20207;-46
2023/03/24 10:44:30;;;;;;;4.43;2.10;;;17.00;66.20;18.10;99589.00;;;;5009349;28;20178;-46
2023/03/24 10:47:01;;;;;;;2.67;1.90;;;17.10;66.20;18.10;99578.00;;;;5008331;28;20281;-46
2023/03/24 10:49:27;;;;;;;3.83;1.97;;;17.10;66.00;18.10;99575.00;;;;5007222;28;20185;-46
2023/03/24 10:52:00;;;;;;;3.73;1.90;;;17.10;66.00;18.10;99573.00;;;;5009384;28;20178;-47
2023/03/24 10:54:26;;;;;;;3.00;1.90;;;17.00;65.90;18.10;99574.00;;;;5009151;28;20182;-48
2023/03/24 10:57:03;;;;;;;3.00;2.00;;;17.10;65.90;18.10;99583.00;;;;5011928;28;20182;-46
2023/03/24 10:59:47;;;;;;;3.37;2.40;;;17.10;66.00;18.10;99580.00;;;;5009532;28;20183;-46
2023/03/24 11:02:31;;;;;;;2.50;1.90;;;17.10;65.90;18.10;99567.00;;;;5007608;28;20204;-46
2023/03/24 11:05:13;;;;;;;4.27;2.03;;;17.10;65.90;18.10;99587.00;;;;5008030;28;20715;-46
2023/03/24 11:07:45;;;;;;;5.47;2.00;;;17.10;65.90;18.10;99579.00;;;;5007756;28;20699;-46
2023/03/24 11:10:14;;;;;;;3.87;1.83;;;17.10;66.70;18.10;99584.00;;;;5007706;28;20227;-46
2023/03/24 11:12:53;;;;;;;4.57;2.10;;;17.10;66.80;18.10;99587.00;;;;5008577;28;20203;-47
2023/03/24 11:15:27;;;;;;;4.80;2.00;;;17.10;65.90;18.10;99594.00;;;;5003022;28;20185;-46